sensor_id;sensor_type;location;lat;lon;timestamp;P1;durP1;ratioP1;P2;durP2;ratioP2
12663;SDS011;6396;58.490;15.528;2023-07-29T00:00:28;3.10;;;2.90;;
12663;SDS011;6396;58.490;15.528;2023-07-29T00:03:33;3.80;;;3.40;;
12663;SDS011;6396;58.490;15.528;2023-07-29T00:06:28;2.90;;;2.70;;
12663;SDS011;6396;58.490;15.528;2023-07-29T00:16:40;2.97;;;2.77;;
12663;SDS011;6396;58.490;15.528;2023-07-29T00:29:58;3.37;;;3.07;;
12663;SDS011;6396;58.490;15.528;2023-07-29T00:32:46;3.27;;;3.07;;
12663;SDS011;6396;58.490;15.528;2023-07-29T00:35:36;3.97;;;3.37;;
12663;SDS011;6396;58.490;15.528;2023-07-29T00:38:10;3.60;;;3.10;;
12663;SDS011;6396;58.490;15.528;2023-07-29T00:40:52;3.20;;;2.87;;
12663;SDS011;6396;58.490;15.528;2023-07-29T00:43:20;3.27;;;2.93;;
12663;SDS011;6396;58.490;15.528;2023-07-29T00:45:48;2.87;;;2.67;;
12663;SDS011;6396;58.490;15.528;2023-07-29T00:48:19;3.70;;;2.97;;
12663;SDS011;6396;58.490;15.528;2023-07-29T00:50:47;5.67;;;3.07;;
12663;SDS011;6396;58.490;15.528;2023-07-29T00:53:18;3.30;;;3.00;;
12663;SDS011;6396;58.490;15.528;2023-07-29T00:55:44;3.93;;;3.07;;
12663;SDS011;6396;58.490;15.528;2023-07-29T01:08:20;3.10;;;2.50;;
12663;SDS011;6396;58.490;15.528;2023-07-29T01:10:55;3.80;;;3.50;;
12663;SDS011;6396;58.490;15.528;2023-07-29T01:13:31;3.60;;;2.83;;
12663;SDS011;6396;58.490;15.528;2023-07-29T01:16:24;4.30;;;3.30;;
12663;SDS011;6396;58.490;15.528;2023-07-29T01:18:56;7.17;;;2.87;;
12663;SDS011;6396;58.490;15.528;2023-07-29T01:21:35;6.23;;;3.70;;
12663;SDS011;6396;58.490;15.528;2023-07-29T01:24:05;4.03;;;3.30;;
12663;SDS011;6396;58.490;15.528;2023-07-29T01:26:32;4.53;;;3.77;;
12663;SDS011;6396;58.490;15.528;2023-07-29T01:29:01;4.30;;;3.67;;
12663;SDS011;6396;58.490;15.528;2023-07-29T01:31:30;3.80;;;3.33;;
12663;SDS011;6396;58.490;15.528;2023-07-29T01:34:03;4.50;;;4.00;;
12663;SDS011;6396;58.490;15.528;2023-07-29T01:36:37;4.30;;;3.90;;
12663;SDS011;6396;58.490;15.528;2023-07-29T01:39:11;4.77;;;3.90;;
12663;SDS011;6396;58.490;15.528;2023-07-29T01:41:40;4.60;;;4.20;;
12663;SDS011;6396;58.490;15.528;2023-07-29T01:44:09;4.80;;;4.07;;
12663;SDS011;6396;58.490;15.528;2023-07-29T01:46:38;4.37;;;3.97;;
12663;SDS011;6396;58.490;15.528;2023-07-29T01:49:05;4.07;;;3.60;;
12663;SDS011;6396;58.490;15.528;2023-07-29T01:51:32;4.33;;;3.93;;
12663;SDS011;6396;58.490;15.528;2023-07-29T01:54:06;4.53;;;4.13;;
12663;SDS011;6396;58.490;15.528;2023-07-29T01:56:36;5.20;;;4.70;;
12663;SDS011;6396;58.490;15.528;2023-07-29T01:59:03;5.10;;;4.03;;
12663;SDS011;6396;58.490;15.528;2023-07-29T02:01:38;4.97;;;3.87;;
12663;SDS011;6396;58.490;15.528;2023-07-29T02:04:06;5.07;;;4.07;;
12663;SDS011;6396;58.490;15.528;2023-07-29T02:06:49;8.83;;;4.17;;
12663;SDS011;6396;58.490;15.528;2023-07-29T02:09:16;9.67;;;4.13;;
12663;SDS011;6396;58.490;15.528;2023-07-29T02:11:46;5.67;;;4.33;;
12663;SDS011;6396;58.490;15.528;2023-07-29T02:14:14;6.47;;;4.13;;
12663;SDS011;6396;58.490;15.528;2023-07-29T02:16:42;7.47;;;4.20;;
12663;SDS011;6396;58.490;15.528;2023-07-29T02:19:10;5.33;;;4.30;;
12663;SDS011;6396;58.490;15.528;2023-07-29T02:21:37;5.00;;;3.70;;
12663;SDS011;6396;58.490;15.528;2023-07-29T02:24:04;5.57;;;3.80;;
12663;SDS011;6396;58.490;15.528;2023-07-29T02:26:32;4.30;;;4.00;;
12663;SDS011;6396;58.490;15.528;2023-07-29T02:29:00;4.93;;;4.00;;
12663;SDS011;6396;58.490;15.528;2023-07-29T02:31:28;5.00;;;4.30;;
12663;SDS011;6396;58.490;15.528;2023-07-29T02:33:55;6.90;;;4.27;;
12663;SDS011;6396;58.490;15.528;2023-07-29T02:36:22;5.33;;;3.83;;
12663;SDS011;6396;58.490;15.528;2023-07-29T02:38:49;4.60;;;3.97;;
12663;SDS011;6396;58.490;15.528;2023-07-29T02:41:18;5.80;;;4.33;;
12663;SDS011;6396;58.490;15.528;2023-07-29T02:43:48;5.70;;;4.20;;
12663;SDS011;6396;58.490;15.528;2023-07-29T02:46:17;5.17;;;4.20;;
12663;SDS011;6396;58.490;15.528;2023-07-29T02:48:49;7.93;;;4.07;;
12663;SDS011;6396;58.490;15.528;2023-07-29T02:51:45;5.07;;;4.07;;
12663;SDS011;6396;58.490;15.528;2023-07-29T02:54:16;4.37;;;3.97;;
12663;SDS011;6396;58.490;15.528;2023-07-29T02:56:43;6.50;;;4.30;;
12663;SDS011;6396;58.490;15.528;2023-07-29T02:59:11;7.37;;;3.70;;
12663;SDS011;6396;58.490;15.528;2023-07-29T03:01:41;6.23;;;4.23;;
12663;SDS011;6396;58.490;15.528;2023-07-29T03:04:08;5.23;;;3.87;;
12663;SDS011;6396;58.490;15.528;2023-07-29T03:06:41;4.10;;;3.70;;
12663;SDS011;6396;58.490;15.528;2023-07-29T03:09:28;4.63;;;3.80;;
12663;SDS011;6396;58.490;15.528;2023-07-29T03:11:58;4.70;;;3.67;;
12663;SDS011;6396;58.490;15.528;2023-07-29T03:14:43;4.67;;;4.30;;
12663;SDS011;6396;58.490;15.528;2023-07-29T03:17:16;4.60;;;4.00;;
12663;SDS011;6396;58.490;15.528;2023-07-29T03:19:45;6.20;;;4.10;;
12663;SDS011;6396;58.490;15.528;2023-07-29T03:22:11;4.87;;;3.93;;
12663;SDS011;6396;58.490;15.528;2023-07-29T03:24:39;5.43;;;3.83;;
12663;SDS011;6396;58.490;15.528;2023-07-29T03:27:07;5.10;;;3.40;;
12663;SDS011;6396;58.490;15.528;2023-07-29T03:29:35;4.50;;;3.93;;
12663;SDS011;6396;58.490;15.528;2023-07-29T03:32:02;4.13;;;3.60;;
12663;SDS011;6396;58.490;15.528;2023-07-29T03:34:31;3.90;;;3.60;;
12663;SDS011;6396;58.490;15.528;2023-07-29T03:36:59;4.90;;;3.67;;
12663;SDS011;6396;58.490;15.528;2023-07-29T03:39:27;3.90;;;3.37;;
12663;SDS011;6396;58.490;15.528;2023-07-29T03:41:56;3.80;;;3.50;;
12663;SDS011;6396;58.490;15.528;2023-07-29T03:44:23;3.77;;;3.40;;
12663;SDS011;6396;58.490;15.528;2023-07-29T03:46:50;4.13;;;3.27;;
12663;SDS011;6396;58.490;15.528;2023-07-29T03:49:17;5.63;;;3.80;;
12663;SDS011;6396;58.490;15.528;2023-07-29T03:51:45;5.27;;;3.80;;
12663;SDS011;6396;58.490;15.528;2023-07-29T03:54:14;5.80;;;3.70;;
12663;SDS011;6396;58.490;15.528;2023-07-29T03:59:38;5.20;;;4.03;;
12663;SDS011;6396;58.490;15.528;2023-07-29T04:02:14;5.90;;;4.40;;
12663;SDS011;6396;58.490;15.528;2023-07-29T04:04:46;5.37;;;3.80;;
12663;SDS011;6396;58.490;15.528;2023-07-29T04:10:36;4.73;;;3.80;;
12663;SDS011;6396;58.490;15.528;2023-07-29T04:16:13;7.20;;;3.83;;
12663;SDS011;6396;58.490;15.528;2023-07-29T04:18:41;4.93;;;3.70;;
12663;SDS011;6396;58.490;15.528;2023-07-29T04:21:08;5.60;;;3.80;;
12663;SDS011;6396;58.490;15.528;2023-07-29T04:23:37;3.43;;;3.13;;
12663;SDS011;6396;58.490;15.528;2023-07-29T04:26:05;3.87;;;3.40;;
12663;SDS011;6396;58.490;15.528;2023-07-29T04:28:32;3.70;;;3.30;;
12663;SDS011;6396;58.490;15.528;2023-07-29T04:31:02;4.20;;;3.70;;
12663;SDS011;6396;58.490;15.528;2023-07-29T04:33:32;6.13;;;4.20;;
12663;SDS011;6396;58.490;15.528;2023-07-29T04:36:17;4.17;;;3.77;;
12663;SDS011;6396;58.490;15.528;2023-07-29T04:38:47;4.87;;;4.03;;
12663;SDS011;6396;58.490;15.528;2023-07-29T04:41:14;5.70;;;3.70;;
12663;SDS011;6396;58.490;15.528;2023-07-29T04:43:42;4.53;;;3.63;;
12663;SDS011;6396;58.490;15.528;2023-07-29T04:46:19;6.03;;;3.97;;
12663;SDS011;6396;58.490;15.528;2023-07-29T04:49:58;6.30;;;4.63;;
12663;SDS011;6396;58.490;15.528;2023-07-29T04:52:27;5.83;;;4.17;;
12663;SDS011;6396;58.490;15.528;2023-07-29T04:57:49;5.43;;;4.27;;
12663;SDS011;6396;58.490;15.528;2023-07-29T05:00:19;5.10;;;4.00;;
12663;SDS011;6396;58.490;15.528;2023-07-29T05:02:50;7.10;;;4.77;;
12663;SDS011;6396;58.490;15.528;2023-07-29T05:08:41;6.63;;;4.73;;
12663;SDS011;6396;58.490;15.528;2023-07-29T05:28:37;5.23;;;4.73;;
12663;SDS011;6396;58.490;15.528;2023-07-29T05:37:58;5.80;;;4.50;;
12663;SDS011;6396;58.490;15.528;2023-07-29T05:41:37;6.53;;;4.90;;
12663;SDS011;6396;58.490;15.528;2023-07-29T06:19:42;5.70;;;3.93;;
12663;SDS011;6396;58.490;15.528;2023-07-29T06:25:22;5.40;;;3.83;;
12663;SDS011;6396;58.490;15.528;2023-07-29T06:27:49;6.37;;;4.03;;
12663;SDS011;6396;58.490;15.528;2023-07-29T06:30:18;4.93;;;4.43;;
12663;SDS011;6396;58.490;15.528;2023-07-29T06:32:59;4.93;;;3.60;;
12663;SDS011;6396;58.490;15.528;2023-07-29T06:35:35;4.30;;;3.90;;
12663;SDS011;6396;58.490;15.528;2023-07-29T06:38:02;4.83;;;3.97;;
12663;SDS011;6396;58.490;15.528;2023-07-29T06:40:29;4.17;;;3.60;;
12663;SDS011;6396;58.490;15.528;2023-07-29T06:43:03;4.17;;;3.73;;
12663;SDS011;6396;58.490;15.528;2023-07-29T06:45:41;4.87;;;3.80;;
12663;SDS011;6396;58.490;15.528;2023-07-29T06:48:08;4.17;;;3.50;;
12663;SDS011;6396;58.490;15.528;2023-07-29T06:50:37;6.20;;;3.63;;
12663;SDS011;6396;58.490;15.528;2023-07-29T06:53:15;4.73;;;3.40;;
12663;SDS011;6396;58.490;15.528;2023-07-29T06:55:43;6.23;;;4.00;;
12663;SDS011;6396;58.490;15.528;2023-07-29T06:58:10;4.33;;;3.60;;
12663;SDS011;6396;58.490;15.528;2023-07-29T07:00:37;6.10;;;3.80;;
12663;SDS011;6396;58.490;15.528;2023-07-29T07:03:04;6.10;;;3.57;;
12663;SDS011;6396;58.490;15.528;2023-07-29T07:05:31;5.30;;;3.70;;
12663;SDS011;6396;58.490;15.528;2023-07-29T07:08:00;6.70;;;3.70;;
12663;SDS011;6396;58.490;15.528;2023-07-29T07:10:28;4.90;;;2.97;;
12663;SDS011;6396;58.490;15.528;2023-07-29T07:12:55;4.87;;;3.90;;
12663;SDS011;6396;58.490;15.528;2023-07-29T07:15:22;4.87;;;3.50;;
12663;SDS011;6396;58.490;15.528;2023-07-29T07:17:49;4.30;;;2.93;;
12663;SDS011;6396;58.490;15.528;2023-07-29T07:20:17;5.00;;;3.07;;
12663;SDS011;6396;58.490;15.528;2023-07-29T07:22:43;3.33;;;3.03;;
12663;SDS011;6396;58.490;15.528;2023-07-29T07:25:12;4.00;;;3.00;;
12663;SDS011;6396;58.490;15.528;2023-07-29T07:27:39;4.97;;;2.87;;
12663;SDS011;6396;58.490;15.528;2023-07-29T07:30:06;4.83;;;3.60;;
12663;SDS011;6396;58.490;15.528;2023-07-29T07:32:33;3.17;;;2.80;;
12663;SDS011;6396;58.490;15.528;2023-07-29T07:35:00;5.80;;;3.30;;
12663;SDS011;6396;58.490;15.528;2023-07-29T07:37:27;4.03;;;3.30;;
12663;SDS011;6396;58.490;15.528;2023-07-29T07:39:54;2.90;;;2.70;;
12663;SDS011;6396;58.490;15.528;2023-07-29T07:42:22;3.80;;;3.20;;
12663;SDS011;6396;58.490;15.528;2023-07-29T07:44:49;7.20;;;3.37;;
12663;SDS011;6396;58.490;15.528;2023-07-29T07:47:16;3.70;;;2.70;;
12663;SDS011;6396;58.490;15.528;2023-07-29T07:49:43;3.90;;;3.50;;
12663;SDS011;6396;58.490;15.528;2023-07-29T07:52:09;5.80;;;3.03;;
12663;SDS011;6396;58.490;15.528;2023-07-29T07:54:36;3.57;;;3.20;;
12663;SDS011;6396;58.490;15.528;2023-07-29T07:57:03;3.30;;;2.97;;
12663;SDS011;6396;58.490;15.528;2023-07-29T07:59:33;3.80;;;2.67;;
12663;SDS011;6396;58.490;15.528;2023-07-29T08:02:09;4.73;;;2.90;;
12663;SDS011;6396;58.490;15.528;2023-07-29T08:04:37;3.20;;;2.90;;
12663;SDS011;6396;58.490;15.528;2023-07-29T08:07:04;3.40;;;3.03;;
12663;SDS011;6396;58.490;15.528;2023-07-29T08:09:32;3.60;;;3.13;;
12663;SDS011;6396;58.490;15.528;2023-07-29T08:12:00;3.00;;;2.77;;
12663;SDS011;6396;58.490;15.528;2023-07-29T08:14:27;3.70;;;3.40;;
12663;SDS011;6396;58.490;15.528;2023-07-29T08:17:07;3.70;;;3.20;;
12663;SDS011;6396;58.490;15.528;2023-07-29T08:19:34;3.10;;;2.60;;
12663;SDS011;6396;58.490;15.528;2023-07-29T08:22:02;3.63;;;2.90;;
12663;SDS011;6396;58.490;15.528;2023-07-29T08:24:29;3.13;;;2.58;;
12663;SDS011;6396;58.490;15.528;2023-07-29T08:26:55;4.05;;;2.92;;
12663;SDS011;6396;58.490;15.528;2023-07-29T08:29:22;3.03;;;2.72;;
12663;SDS011;6396;58.490;15.528;2023-07-29T08:31:49;3.22;;;2.67;;
12663;SDS011;6396;58.490;15.528;2023-07-29T08:34:18;3.42;;;2.92;;
12663;SDS011;6396;58.490;15.528;2023-07-29T08:36:44;3.10;;;2.83;;
12663;SDS011;6396;58.490;15.528;2023-07-29T08:39:11;3.63;;;2.70;;
12663;SDS011;6396;58.490;15.528;2023-07-29T08:41:41;5.28;;;2.90;;
12663;SDS011;6396;58.490;15.528;2023-07-29T08:44:17;3.50;;;2.75;;
12663;SDS011;6396;58.490;15.528;2023-07-29T08:46:47;3.05;;;2.40;;
12663;SDS011;6396;58.490;15.528;2023-07-29T08:49:14;2.92;;;2.25;;
12663;SDS011;6396;58.490;15.528;2023-07-29T08:51:45;3.00;;;2.20;;
12663;SDS011;6396;58.490;15.528;2023-07-29T08:54:13;2.88;;;2.60;;
12663;SDS011;6396;58.490;15.528;2023-07-29T08:56:40;2.72;;;2.53;;
12663;SDS011;6396;58.490;15.528;2023-07-29T08:59:08;2.63;;;2.17;;
12663;SDS011;6396;58.490;15.528;2023-07-29T09:01:35;2.40;;;2.20;;
12663;SDS011;6396;58.490;15.528;2023-07-29T09:04:03;3.25;;;2.45;;
12663;SDS011;6396;58.490;15.528;2023-07-29T09:06:30;2.40;;;2.13;;
12663;SDS011;6396;58.490;15.528;2023-07-29T09:08:59;2.58;;;2.38;;
12663;SDS011;6396;58.490;15.528;2023-07-29T09:11:27;2.50;;;2.30;;
12663;SDS011;6396;58.490;15.528;2023-07-29T09:13:54;2.38;;;2.17;;
12663;SDS011;6396;58.490;15.528;2023-07-29T09:16:21;2.55;;;2.17;;
12663;SDS011;6396;58.490;15.528;2023-07-29T09:18:48;2.17;;;1.95;;
12663;SDS011;6396;58.490;15.528;2023-07-29T09:21:16;2.30;;;2.10;;
12663;SDS011;6396;58.490;15.528;2023-07-29T09:23:43;2.97;;;2.67;;
12663;SDS011;6396;58.490;15.528;2023-07-29T09:26:12;2.50;;;2.30;;
12663;SDS011;6396;58.490;15.528;2023-07-29T09:28:39;2.47;;;2.28;;
12663;SDS011;6396;58.490;15.528;2023-07-29T09:31:06;2.83;;;2.53;;
12663;SDS011;6396;58.490;15.528;2023-07-29T09:33:44;2.63;;;2.42;;
12663;SDS011;6396;58.490;15.528;2023-07-29T09:36:11;2.00;;;1.90;;
12663;SDS011;6396;58.490;15.528;2023-07-29T09:38:38;4.13;;;1.88;;
12663;SDS011;6396;58.490;15.528;2023-07-29T09:41:05;2.42;;;2.22;;
12663;SDS011;6396;58.490;15.528;2023-07-29T09:43:39;2.97;;;2.60;;
12663;SDS011;6396;58.490;15.528;2023-07-29T09:46:08;2.92;;;2.50;;
12663;SDS011;6396;58.490;15.528;2023-07-29T09:48:35;2.38;;;2.17;;
12663;SDS011;6396;58.490;15.528;2023-07-29T09:51:12;3.00;;;2.20;;
12663;SDS011;6396;58.490;15.528;2023-07-29T09:58:08;2.92;;;2.35;;
12663;SDS011;6396;58.490;15.528;2023-07-29T10:04:18;2.47;;;2.28;;
12663;SDS011;6396;58.490;15.528;2023-07-29T10:06:45;3.58;;;2.58;;
12663;SDS011;6396;58.490;15.528;2023-07-29T10:09:13;3.17;;;2.70;;
12663;SDS011;6396;58.490;15.528;2023-07-29T10:11:40;2.58;;;2.38;;
12663;SDS011;6396;58.490;15.528;2023-07-29T10:14:11;2.60;;;2.40;;
12663;SDS011;6396;58.490;15.528;2023-07-29T10:16:38;3.25;;;2.70;;
12663;SDS011;6396;58.490;15.528;2023-07-29T10:19:06;2.60;;;2.40;;
12663;SDS011;6396;58.490;15.528;2023-07-29T10:21:35;2.75;;;2.47;;
12663;SDS011;6396;58.490;15.528;2023-07-29T10:24:05;2.97;;;2.53;;
12663;SDS011;6396;58.490;15.528;2023-07-29T10:26:35;3.37;;;2.83;;
12663;SDS011;6396;58.490;15.528;2023-07-29T10:29:05;2.90;;;2.50;;
12663;SDS011;6396;58.490;15.528;2023-07-29T10:31:37;3.00;;;2.78;;
12663;SDS011;6396;58.490;15.528;2023-07-29T10:34:06;3.17;;;2.60;;
12663;SDS011;6396;58.490;15.528;2023-07-29T10:36:33;2.50;;;2.30;;
12663;SDS011;6396;58.490;15.528;2023-07-29T10:39:02;2.90;;;2.60;;
12663;SDS011;6396;58.490;15.528;2023-07-29T10:47:14;3.13;;;2.83;;
12663;SDS011;6396;58.490;15.528;2023-07-29T10:49:42;2.90;;;2.60;;
12663;SDS011;6396;58.490;15.528;2023-07-29T10:52:12;3.27;;;2.53;;
12663;SDS011;6396;58.490;15.528;2023-07-29T10:54:44;2.90;;;2.70;;
12663;SDS011;6396;58.490;15.528;2023-07-29T10:57:14;5.57;;;2.73;;
12663;SDS011;6396;58.490;15.528;2023-07-29T10:59:52;4.07;;;2.73;;
12663;SDS011;6396;58.490;15.528;2023-07-29T11:02:21;3.20;;;2.50;;
12663;SDS011;6396;58.490;15.528;2023-07-29T11:04:56;3.10;;;2.47;;
12663;SDS011;6396;58.490;15.528;2023-07-29T11:07:24;4.30;;;2.97;;
12663;SDS011;6396;58.490;15.528;2023-07-29T11:09:57;3.10;;;2.80;;
12663;SDS011;6396;58.490;15.528;2023-07-29T11:12:39;2.80;;;2.60;;
12663;SDS011;6396;58.490;15.528;2023-07-29T11:15:15;4.13;;;3.00;;
12663;SDS011;6396;58.490;15.528;2023-07-29T11:18:08;2.83;;;2.63;;
12663;SDS011;6396;58.490;15.528;2023-07-29T11:20:41;2.67;;;2.47;;
12663;SDS011;6396;58.490;15.528;2023-07-29T11:23:10;3.40;;;2.63;;
12663;SDS011;6396;58.490;15.528;2023-07-29T11:25:39;3.10;;;2.80;;
12663;SDS011;6396;58.490;15.528;2023-07-29T11:28:06;3.23;;;2.93;;
12663;SDS011;6396;58.490;15.528;2023-07-29T11:30:34;3.30;;;3.00;;
12663;SDS011;6396;58.490;15.528;2023-07-29T11:33:01;2.90;;;2.60;;
12663;SDS011;6396;58.490;15.528;2023-07-29T11:35:28;3.33;;;2.97;;
12663;SDS011;6396;58.490;15.528;2023-07-29T11:37:56;4.50;;;2.83;;
12663;SDS011;6396;58.490;15.528;2023-07-29T11:40:23;3.07;;;2.77;;
12663;SDS011;6396;58.490;15.528;2023-07-29T11:42:51;2.60;;;2.40;;
12663;SDS011;6396;58.490;15.528;2023-07-29T11:45:28;3.33;;;3.00;;
12663;SDS011;6396;58.490;15.528;2023-07-29T11:47:55;2.90;;;2.60;;
12663;SDS011;6396;58.490;15.528;2023-07-29T11:50:24;3.03;;;2.50;;
12663;SDS011;6396;58.490;15.528;2023-07-29T11:52:51;3.73;;;3.00;;
12663;SDS011;6396;58.490;15.528;2023-07-29T11:55:18;3.50;;;2.93;;
12663;SDS011;6396;58.490;15.528;2023-07-29T11:57:46;2.80;;;2.57;;
12663;SDS011;6396;58.490;15.528;2023-07-29T12:00:18;4.00;;;2.67;;
12663;SDS011;6396;58.490;15.528;2023-07-29T12:02:47;3.83;;;2.77;;
12663;SDS011;6396;58.490;15.528;2023-07-29T12:05:18;3.27;;;2.93;;
12663;SDS011;6396;58.490;15.528;2023-07-29T12:07:48;2.90;;;2.60;;
12663;SDS011;6396;58.490;15.528;2023-07-29T12:10:15;3.27;;;2.57;;
12663;SDS011;6396;58.490;15.528;2023-07-29T12:12:44;3.60;;;3.00;;
12663;SDS011;6396;58.490;15.528;2023-07-29T12:15:13;4.63;;;3.10;;
12663;SDS011;6396;58.490;15.528;2023-07-29T12:17:40;3.37;;;3.07;;
12663;SDS011;6396;58.490;15.528;2023-07-29T12:20:08;3.30;;;2.80;;
12663;SDS011;6396;58.490;15.528;2023-07-29T12:22:36;3.40;;;2.70;;
12663;SDS011;6396;58.490;15.528;2023-07-29T12:25:03;3.00;;;2.80;;
12663;SDS011;6396;58.490;15.528;2023-07-29T12:27:31;3.23;;;2.80;;
12663;SDS011;6396;58.490;15.528;2023-07-29T12:30:00;3.47;;;3.17;;
12663;SDS011;6396;58.490;15.528;2023-07-29T12:32:30;4.93;;;2.90;;
12663;SDS011;6396;58.490;15.528;2023-07-29T12:34:58;3.57;;;3.20;;
12663;SDS011;6396;58.490;15.528;2023-07-29T12:37:30;3.10;;;2.80;;
12663;SDS011;6396;58.490;15.528;2023-07-29T12:39:58;4.60;;;2.93;;
12663;SDS011;6396;58.490;15.528;2023-07-29T12:42:25;3.37;;;2.90;;
12663;SDS011;6396;58.490;15.528;2023-07-29T12:44:52;3.70;;;2.90;;
12663;SDS011;6396;58.490;15.528;2023-07-29T12:47:18;3.97;;;3.00;;
12663;SDS011;6396;58.490;15.528;2023-07-29T12:49:47;6.13;;;3.10;;
12663;SDS011;6396;58.490;15.528;2023-07-29T12:52:14;3.43;;;2.80;;
12663;SDS011;6396;58.490;15.528;2023-07-29T12:54:41;3.50;;;3.20;;
12663;SDS011;6396;58.490;15.528;2023-07-29T12:57:09;4.00;;;2.80;;
12663;SDS011;6396;58.490;15.528;2023-07-29T12:59:36;3.97;;;3.00;;
12663;SDS011;6396;58.490;15.528;2023-07-29T13:02:03;3.33;;;3.03;;
12663;SDS011;6396;58.490;15.528;2023-07-29T13:04:30;3.53;;;2.77;;
12663;SDS011;6396;58.490;15.528;2023-07-29T13:06:58;3.00;;;2.80;;
12663;SDS011;6396;58.490;15.528;2023-07-29T13:09:26;2.93;;;2.73;;
12663;SDS011;6396;58.490;15.528;2023-07-29T13:11:52;3.50;;;3.20;;
12663;SDS011;6396;58.490;15.528;2023-07-29T13:14:21;3.80;;;3.40;;
12663;SDS011;6396;58.490;15.528;2023-07-29T13:16:48;3.13;;;2.83;;
12663;SDS011;6396;58.490;15.528;2023-07-29T13:19:15;4.90;;;3.30;;
12663;SDS011;6396;58.490;15.528;2023-07-29T13:21:42;4.00;;;2.97;;
12663;SDS011;6396;58.490;15.528;2023-07-29T13:24:10;3.47;;;3.00;;
12663;SDS011;6396;58.490;15.528;2023-07-29T13:26:37;3.40;;;3.10;;
12663;SDS011;6396;58.490;15.528;2023-07-29T13:29:04;3.00;;;2.77;;
12663;SDS011;6396;58.490;15.528;2023-07-29T13:31:30;3.20;;;2.90;;
12663;SDS011;6396;58.490;15.528;2023-07-29T13:33:57;3.47;;;2.87;;
12663;SDS011;6396;58.490;15.528;2023-07-29T13:36:24;3.10;;;2.77;;
12663;SDS011;6396;58.490;15.528;2023-07-29T13:38:51;5.97;;;2.90;;
12663;SDS011;6396;58.490;15.528;2023-07-29T13:41:19;2.87;;;2.67;;
12663;SDS011;6396;58.490;15.528;2023-07-29T13:43:46;4.67;;;3.33;;
12663;SDS011;6396;58.490;15.528;2023-07-29T13:46:13;3.90;;;3.60;;
12663;SDS011;6396;58.490;15.528;2023-07-29T13:48:40;3.13;;;2.83;;
12663;SDS011;6396;58.490;15.528;2023-07-29T13:51:07;4.73;;;2.87;;
12663;SDS011;6396;58.490;15.528;2023-07-29T13:53:33;2.97;;;2.50;;
12663;SDS011;6396;58.490;15.528;2023-07-29T13:56:00;3.93;;;2.73;;
12663;SDS011;6396;58.490;15.528;2023-07-29T13:58:28;5.17;;;3.50;;
12663;SDS011;6396;58.490;15.528;2023-07-29T14:00:55;3.30;;;3.03;;
12663;SDS011;6396;58.490;15.528;2023-07-29T14:03:22;3.10;;;2.90;;
12663;SDS011;6396;58.490;15.528;2023-07-29T14:05:49;2.70;;;2.50;;
12663;SDS011;6396;58.490;15.528;2023-07-29T14:08:15;3.80;;;3.43;;
12663;SDS011;6396;58.490;15.528;2023-07-29T14:10:42;3.43;;;3.13;;
12663;SDS011;6396;58.490;15.528;2023-07-29T14:13:09;3.20;;;2.90;;
12663;SDS011;6396;58.490;15.528;2023-07-29T14:15:38;3.87;;;3.20;;
12663;SDS011;6396;58.490;15.528;2023-07-29T14:18:05;4.77;;;3.43;;
12663;SDS011;6396;58.490;15.528;2023-07-29T14:20:32;4.43;;;3.53;;
12663;SDS011;6396;58.490;15.528;2023-07-29T14:22:59;3.83;;;2.97;;
12663;SDS011;6396;58.490;15.528;2023-07-29T14:25:26;3.87;;;2.73;;
12663;SDS011;6396;58.490;15.528;2023-07-29T14:27:53;3.47;;;3.17;;
12663;SDS011;6396;58.490;15.528;2023-07-29T14:30:20;3.27;;;2.97;;
12663;SDS011;6396;58.490;15.528;2023-07-29T14:32:49;3.93;;;3.03;;
12663;SDS011;6396;58.490;15.528;2023-07-29T14:35:15;2.87;;;2.60;;
12663;SDS011;6396;58.490;15.528;2023-07-29T14:37:42;3.97;;;3.10;;
12663;SDS011;6396;58.490;15.528;2023-07-29T14:40:09;3.50;;;3.20;;
12663;SDS011;6396;58.490;15.528;2023-07-29T14:42:36;4.30;;;3.27;;
12663;SDS011;6396;58.490;15.528;2023-07-29T14:45:03;3.60;;;3.30;;
12663;SDS011;6396;58.490;15.528;2023-07-29T14:47:31;4.13;;;3.40;;
12663;SDS011;6396;58.490;15.528;2023-07-29T14:50:01;3.57;;;3.27;;
12663;SDS011;6396;58.490;15.528;2023-07-29T14:52:28;4.00;;;3.60;;
12663;SDS011;6396;58.490;15.528;2023-07-29T14:54:54;3.40;;;3.10;;
12663;SDS011;6396;58.490;15.528;2023-07-29T14:57:21;3.17;;;2.87;;
12663;SDS011;6396;58.490;15.528;2023-07-29T14:59:48;4.13;;;3.30;;
12663;SDS011;6396;58.490;15.528;2023-07-29T15:02:15;4.00;;;3.60;;
12663;SDS011;6396;58.490;15.528;2023-07-29T15:04:43;3.30;;;3.00;;
12663;SDS011;6396;58.490;15.528;2023-07-29T15:07:11;3.80;;;3.40;;
12663;SDS011;6396;58.490;15.528;2023-07-29T15:09:38;3.37;;;3.00;;
12663;SDS011;6396;58.490;15.528;2023-07-29T15:12:05;4.27;;;3.03;;
12663;SDS011;6396;58.490;15.528;2023-07-29T15:14:33;5.87;;;3.10;;
12663;SDS011;6396;58.490;15.528;2023-07-29T15:17:00;3.43;;;3.13;;
12663;SDS011;6396;58.490;15.528;2023-07-29T15:19:27;3.73;;;3.17;;
12663;SDS011;6396;58.490;15.528;2023-07-29T15:21:53;3.47;;;3.17;;
12663;SDS011;6396;58.490;15.528;2023-07-29T15:24:22;4.20;;;3.33;;
12663;SDS011;6396;58.490;15.528;2023-07-29T15:26:49;3.90;;;3.60;;
12663;SDS011;6396;58.490;15.528;2023-07-29T15:29:15;4.47;;;3.73;;
12663;SDS011;6396;58.490;15.528;2023-07-29T15:31:42;3.93;;;3.40;;
12663;SDS011;6396;58.490;15.528;2023-07-29T15:34:09;4.97;;;4.37;;
12663;SDS011;6396;58.490;15.528;2023-07-29T15:36:36;6.27;;;4.40;;
12663;SDS011;6396;58.490;15.528;2023-07-29T15:39:02;4.20;;;3.80;;
12663;SDS011;6396;58.490;15.528;2023-07-29T15:41:32;4.23;;;3.83;;
12663;SDS011;6396;58.490;15.528;2023-07-29T15:43:59;6.50;;;3.77;;
12663;SDS011;6396;58.490;15.528;2023-07-29T15:46:26;4.33;;;3.80;;
12663;SDS011;6396;58.490;15.528;2023-07-29T15:48:52;3.87;;;3.30;;
12663;SDS011;6396;58.490;15.528;2023-07-29T15:51:24;3.40;;;3.10;;
12663;SDS011;6396;58.490;15.528;2023-07-29T15:53:51;4.73;;;3.33;;
12663;SDS011;6396;58.490;15.528;2023-07-29T15:56:18;3.53;;;3.23;;
12663;SDS011;6396;58.490;15.528;2023-07-29T15:58:51;3.57;;;3.27;;
12663;SDS011;6396;58.490;15.528;2023-07-29T16:01:18;3.60;;;3.30;;
12663;SDS011;6396;58.490;15.528;2023-07-29T16:03:44;3.97;;;3.27;;
12663;SDS011;6396;58.490;15.528;2023-07-29T16:06:11;4.80;;;3.97;;
12663;SDS011;6396;58.490;15.528;2023-07-29T16:08:38;4.00;;;3.53;;
12663;SDS011;6396;58.490;15.528;2023-07-29T16:11:05;3.80;;;3.33;;
12663;SDS011;6396;58.490;15.528;2023-07-29T16:13:33;6.30;;;4.83;;
12663;SDS011;6396;58.490;15.528;2023-07-29T16:16:04;5.73;;;4.77;;
12663;SDS011;6396;58.490;15.528;2023-07-29T16:18:31;3.60;;;3.20;;
12663;SDS011;6396;58.490;15.528;2023-07-29T16:21:01;4.93;;;3.13;;
12663;SDS011;6396;58.490;15.528;2023-07-29T16:23:28;3.43;;;3.13;;
12663;SDS011;6396;58.490;15.528;2023-07-29T16:25:55;3.53;;;3.20;;
12663;SDS011;6396;58.490;15.528;2023-07-29T16:28:23;4.00;;;3.57;;
12663;SDS011;6396;58.490;15.528;2023-07-29T16:30:49;3.40;;;3.10;;
12663;SDS011;6396;58.490;15.528;2023-07-29T16:33:19;4.37;;;3.10;;
12663;SDS011;6396;58.490;15.528;2023-07-29T16:35:46;3.60;;;3.10;;
12663;SDS011;6396;58.490;15.528;2023-07-29T16:38:13;4.13;;;3.30;;
12663;SDS011;6396;58.490;15.528;2023-07-29T16:40:40;3.97;;;3.03;;
12663;SDS011;6396;58.490;15.528;2023-07-29T16:43:07;3.40;;;3.10;;
12663;SDS011;6396;58.490;15.528;2023-07-29T16:45:33;3.73;;;3.30;;
12663;SDS011;6396;58.490;15.528;2023-07-29T16:48:00;3.50;;;3.20;;
12663;SDS011;6396;58.490;15.528;2023-07-29T16:50:29;3.23;;;2.80;;
12663;SDS011;6396;58.490;15.528;2023-07-29T16:52:56;3.87;;;3.20;;
12663;SDS011;6396;58.490;15.528;2023-07-29T16:55:24;3.37;;;3.07;;
12663;SDS011;6396;58.490;15.528;2023-07-29T16:57:50;4.77;;;3.07;;
12663;SDS011;6396;58.490;15.528;2023-07-29T17:00:18;3.30;;;2.93;;
12663;SDS011;6396;58.490;15.528;2023-07-29T17:02:45;4.10;;;3.13;;